Terminal Aerodrome Forecast
Issued by NWS

Current Version | Previous Version | Text Only | Print | Product List | Glossary On
Versions: 1 2 3 4 5 6 7 8 9 10 11 12 13 14 15 16 17 18 19 20 21 22
770
FTUS42 KMLB 041747
TAFSUA
TAF
KSUA 041747Z 0418/0518 23011KT P6SM -RA SCT050 BKN080 OVC120
      TEMPO 0418/0422 5SM TSRA BKN030CB OVC050
     FM050700 26012KT P6SM BKN030 OVC120
     FM051300 30012KT P6SM SCT040=

USA.gov is the U.S. government's official web portal to all federal, state and local government web resources and services.